Coila, Mississippi
Current Conditions -  °F | °C
As of 1:53 PM on Wednesday 17 Dec 2014 (Local Time) from KGWO Reporting Station
Clear Clear  
Wind Chill: 50°   Ceiling: Unl
Heat Index: 50°   Visibility: 10mi
Dew Point: 35°   Wind: 6mph
Humidity: 57%   Direction: 330°NNW
Pressure: 30.25"   Gusts: NA
Location:  33.4°N, 89.97°W
Report Text: KGWO 171953Z AUTO 33005KT 10SM CLR 10/02 A3025 RMK AO2 SLP244 T01000017
Loading
Personal Weather Stations






























Interactive Weather Map New forecast layout! Learn more

10-Day Weather Forecast

Advertisements
Track Severe Weather on mobile